sensor_id;sensor_type;location;lat;lon;timestamp;pressure;altitude;pressure_sealevel;temperature;humidity
25722;BME280;13578;53.450;15.496;2022-11-15T00:00:50;99815.13;;;5.82;100.00
25722;BME280;13578;53.450;15.496;2022-11-15T00:03:51;99813.91;;;5.73;100.00
25722;BME280;13578;53.450;15.496;2022-11-15T00:06:52;99813.25;;;5.69;100.00
25722;BME280;13578;53.450;15.496;2022-11-15T00:09:52;99797.69;;;5.71;100.00
25722;BME280;13578;53.450;15.496;2022-11-15T00:12:53;99812.72;;;5.77;100.00
25722;BME280;13578;53.450;15.496;2022-11-15T00:15:57;99797.47;;;5.75;100.00
25722;BME280;13578;53.450;15.496;2022-11-15T00:18:58;99809.47;;;5.72;100.00
25722;BME280;13578;53.450;15.496;2022-11-15T00:21:59;99799.63;;;5.69;100.00
25722;BME280;13578;53.450;15.496;2022-11-15T00:24:59;99802.34;;;5.69;100.00
25722;BME280;13578;53.450;15.496;2022-11-15T00:28:00;99794.84;;;5.73;100.00
25722;BME280;13578;53.450;15.496;2022-11-15T00:31:06;99794.97;;;5.71;100.00
25722;BME280;13578;53.450;15.496;2022-11-15T00:34:06;99783.88;;;5.75;100.00
25722;BME280;13578;53.450;15.496;2022-11-15T00:37:07;99792.13;;;5.73;100.00
25722;BME280;13578;53.450;15.496;2022-11-15T00:40:10;99785.69;;;5.74;100.00
25722;BME280;13578;53.450;15.496;2022-11-15T00:43:13;99780.16;;;5.76;100.00
25722;BME280;13578;53.450;15.496;2022-11-15T00:46:13;99788.41;;;5.74;100.00
25722;BME280;13578;53.450;15.496;2022-11-15T00:49:14;99784.19;;;5.70;100.00
25722;BME280;13578;53.450;15.496;2022-11-15T00:52:14;99773.94;;;5.61;100.00
25722;BME280;13578;53.450;15.496;2022-11-15T00:55:16;99767.31;;;5.65;100.00
25722;BME280;13578;53.450;15.496;2022-11-15T00:58:17;99776.13;;;5.68;100.00
25722;BME280;13578;53.450;15.496;2022-11-15T01:01:18;99767.19;;;5.66;100.00
25722;BME280;13578;53.450;15.496;2022-11-15T01:04:18;99771.09;;;5.62;100.00
25722;BME280;13578;53.450;15.496;2022-11-15T01:07:19;99769.03;;;5.66;100.00
25722;BME280;13578;53.450;15.496;2022-11-15T01:10:20;99762.25;;;5.59;100.00
25722;BME280;13578;53.450;15.496;2022-11-15T01:13:21;99762.25;;;5.59;100.00
25722;BME280;13578;53.450;15.496;2022-11-15T01:16:21;99759.13;;;5.65;100.00
25722;BME280;13578;53.450;15.496;2022-11-15T01:19:22;99761.94;;;5.63;100.00
25722;BME280;13578;53.450;15.496;2022-11-15T01:22:22;99759.53;;;5.59;100.00
25722;BME280;13578;53.450;15.496;2022-11-15T01:25:23;99751.28;;;5.60;100.00
25722;BME280;13578;53.450;15.496;2022-11-15T01:28:24;99753.91;;;5.62;100.00
25722;BME280;13578;53.450;15.496;2022-11-15T01:31:24;99740.59;;;5.57;100.00
25722;BME280;13578;53.450;15.496;2022-11-15T01:34:25;99738.84;;;5.56;100.00
25722;BME280;13578;53.450;15.496;2022-11-15T01:37:25;99727.09;;;5.55;100.00
25722;BME280;13578;53.450;15.496;2022-11-15T01:40:26;99733.66;;;5.53;100.00
25722;BME280;13578;53.450;15.496;2022-11-15T01:43:29;99733.31;;;5.57;100.00
25722;BME280;13578;53.450;15.496;2022-11-15T01:46:33;99721.13;;;5.50;100.00
25722;BME280;13578;53.450;15.496;2022-11-15T01:49:38;99716.53;;;5.51;100.00
25722;BME280;13578;53.450;15.496;2022-11-15T01:52:40;99712.97;;;5.50;100.00
25722;BME280;13578;53.450;15.496;2022-11-15T01:55:41;99715.09;;;5.45;100.00
25722;BME280;13578;53.450;15.496;2022-11-15T01:58:43;99713.06;;;5.36;100.00
25722;BME280;13578;53.450;15.496;2022-11-15T02:01:46;99715.00;;;5.34;100.00
25722;BME280;13578;53.450;15.496;2022-11-15T02:04:47;99702.91;;;5.38;100.00
25722;BME280;13578;53.450;15.496;2022-11-15T02:07:48;99706.06;;;5.32;100.00
25722;BME280;13578;53.450;15.496;2022-11-15T02:10:49;99698.03;;;5.30;100.00
25722;BME280;13578;53.450;15.496;2022-11-15T02:13:50;99699.75;;;5.31;100.00
25722;BME280;13578;53.450;15.496;2022-11-15T02:20:29;99698.78;;;5.32;100.00
25722;BME280;13578;53.450;15.496;2022-11-15T02:23:55;99687.44;;;5.25;100.00
25722;BME280;13578;53.450;15.496;2022-11-15T02:27:20;99693.88;;;5.24;100.00
25722;BME280;13578;53.450;15.496;2022-11-15T02:34:33;99674.63;;;5.28;100.00
25722;BME280;13578;53.450;15.496;2022-11-15T02:37:37;99680.06;;;5.28;100.00
25722;BME280;13578;53.450;15.496;2022-11-15T02:41:15;99678.09;;;5.30;100.00
25722;BME280;13578;53.450;15.496;2022-11-15T02:44:32;99676.75;;;5.22;100.00
25722;BME280;13578;53.450;15.496;2022-11-15T02:47:38;99668.06;;;5.17;100.00
25722;BME280;13578;53.450;15.496;2022-11-15T02:50:42;99659.13;;;5.15;100.00
25722;BME280;13578;53.450;15.496;2022-11-15T02:53:44;99667.28;;;5.15;100.00
25722;BME280;13578;53.450;15.496;2022-11-15T02:56:45;99669.16;;;5.15;100.00
25722;BME280;13578;53.450;15.496;2022-11-15T03:00:06;99668.50;;;5.11;100.00
25722;BME280;13578;53.450;15.496;2022-11-15T03:03:33;99664.16;;;5.08;100.00
25722;BME280;13578;53.450;15.496;2022-11-15T03:06:54;99657.19;;;5.17;100.00
25722;BME280;13578;53.450;15.496;2022-11-15T03:10:11;99657.97;;;5.19;100.00
25722;BME280;13578;53.450;15.496;2022-11-15T03:20:13;99653.59;;;5.17;100.00
25722;BME280;13578;53.450;15.496;2022-11-15T03:23:14;99653.81;;;5.14;100.00
25722;BME280;13578;53.450;15.496;2022-11-15T03:26:16;99655.44;;;5.16;100.00
25722;BME280;13578;53.450;15.496;2022-11-15T03:29:25;99652.41;;;5.21;100.00
25722;BME280;13578;53.450;15.496;2022-11-15T03:32:29;99655.97;;;5.21;100.00
25722;BME280;13578;53.450;15.496;2022-11-15T03:35:35;99648.81;;;5.20;100.00
25722;BME280;13578;53.450;15.496;2022-11-15T03:38:38;99647.06;;;5.19;100.00
25722;BME280;13578;53.450;15.496;2022-11-15T03:45:17;99635.97;;;5.22;100.00
25722;BME280;13578;53.450;15.496;2022-11-15T03:48:25;99640.75;;;5.19;100.00
25722;BME280;13578;53.450;15.496;2022-11-15T03:51:29;99639.34;;;5.13;100.00
25722;BME280;13578;53.450;15.496;2022-11-15T03:54:30;99636.63;;;5.13;100.00
25722;BME280;13578;53.450;15.496;2022-11-15T03:57:31;99636.19;;;5.19;100.00
25722;BME280;13578;53.450;15.496;2022-11-15T04:00:31;99640.75;;;5.19;100.00
25722;BME280;13578;53.450;15.496;2022-11-15T04:03:32;99634.66;;;5.15;100.00
25722;BME280;13578;53.450;15.496;2022-11-15T04:06:33;99643.59;;;5.17;100.00
25722;BME280;13578;53.450;15.496;2022-11-15T04:09:33;99632.91;;;5.14;100.00
25722;BME280;13578;53.450;15.496;2022-11-15T04:12:54;99629.19;;;5.15;100.00
25722;BME280;13578;53.450;15.496;2022-11-15T04:15:54;99634.66;;;5.15;100.00
25722;BME280;13578;53.450;15.496;2022-11-15T04:18:55;99637.03;;;5.07;100.00
25722;BME280;13578;53.450;15.496;2022-11-15T04:22:14;99629.63;;;5.09;100.00
25722;BME280;13578;53.450;15.496;2022-11-15T04:25:33;99624.19;;;5.09;100.00
25722;BME280;13578;53.450;15.496;2022-11-15T04:28:33;99625.16;;;5.08;100.00
25722;BME280;13578;53.450;15.496;2022-11-15T04:31:34;99625.81;;;5.12;100.00
25722;BME280;13578;53.450;15.496;2022-11-15T04:34:35;99617.25;;;5.05;100.00
25722;BME280;13578;53.450;15.496;2022-11-15T04:37:35;99612.66;;;5.05;100.00
25722;BME280;13578;53.450;15.496;2022-11-15T04:40:37;99615.38;;;5.05;100.00
25722;BME280;13578;53.450;15.496;2022-11-15T04:43:37;99615.63;;;5.02;100.00
25722;BME280;13578;53.450;15.496;2022-11-15T04:46:38;99619.19;;;5.03;100.00
25722;BME280;13578;53.450;15.496;2022-11-15T04:49:39;99617.56;;;5.00;100.00
25722;BME280;13578;53.450;15.496;2022-11-15T04:52:46;99616.91;;;4.97;100.00
25722;BME280;13578;53.450;15.496;2022-11-15T04:55:49;99622.34;;;4.97;100.00
25722;BME280;13578;53.450;15.496;2022-11-15T04:58:50;99618.66;;;4.98;100.00
25722;BME280;13578;53.450;15.496;2022-11-15T05:01:51;99615.25;;;5.07;100.00
25722;BME280;13578;53.450;15.496;2022-11-15T05:04:52;99613.44;;;5.07;100.00
25722;BME280;13578;53.450;15.496;2022-11-15T05:07:52;99617.00;;;5.08;100.00
25722;BME280;13578;53.450;15.496;2022-11-15T05:10:53;99609.81;;;5.07;100.00
25722;BME280;13578;53.450;15.496;2022-11-15T05:13:54;99611.56;;;5.08;100.00
25722;BME280;13578;53.450;15.496;2022-11-15T05:16:54;99608.13;;;5.06;100.00
25722;BME280;13578;53.450;15.496;2022-11-15T05:19:55;99611.16;;;5.01;100.00
25722;BME280;13578;53.450;15.496;2022-11-15T05:22:56;99609.41;;;5.00;100.00
25722;BME280;13578;53.450;15.496;2022-11-15T05:26:00;99609.09;;;5.05;100.00
25722;BME280;13578;53.450;15.496;2022-11-15T05:29:01;99607.53;;;5.01;100.00
25722;BME280;13578;53.450;15.496;2022-11-15T05:32:04;99606.81;;;4.99;100.00
25722;BME280;13578;53.450;15.496;2022-11-15T05:35:07;99614.72;;;5.02;100.00
25722;BME280;13578;53.450;15.496;2022-11-15T05:38:09;99606.69;;;5.00;100.00
25722;BME280;13578;53.450;15.496;2022-11-15T05:41:10;99611.81;;;5.05;100.00
25722;BME280;13578;53.450;15.496;2022-11-15T05:44:14;99611.22;;;5.00;100.00
25722;BME280;13578;53.450;15.496;2022-11-15T05:47:22;99612.13;;;5.00;100.00
25722;BME280;13578;53.450;15.496;2022-11-15T05:50:24;99623.78;;;5.02;100.00
25722;BME280;13578;53.450;15.496;2022-11-15T05:53:25;99618.41;;;5.01;100.00
25722;BME280;13578;53.450;15.496;2022-11-15T05:56:27;99613.56;;;5.06;100.00
25722;BME280;13578;53.450;15.496;2022-11-15T05:59:29;99605.16;;;5.09;100.00
25722;BME280;13578;53.450;15.496;2022-11-15T06:02:31;99611.25;;;5.13;100.00
25722;BME280;13578;53.450;15.496;2022-11-15T06:05:32;99605.03;;;5.11;100.00
25722;BME280;13578;53.450;15.496;2022-11-15T06:08:32;99596.22;;;5.07;100.00
25722;BME280;13578;53.450;15.496;2022-11-15T06:11:33;99595.47;;;5.05;100.00
25722;BME280;13578;53.450;15.496;2022-11-15T06:14:34;99593.75;;;5.04;100.00
25722;BME280;13578;53.450;15.496;2022-11-15T06:17:34;99597.44;;;5.03;100.00
25722;BME280;13578;53.450;15.496;2022-11-15T06:20:35;99601.78;;;5.05;100.00
25722;BME280;13578;53.450;15.496;2022-11-15T06:23:35;99606.03;;;4.97;100.00
25722;BME280;13578;53.450;15.496;2022-11-15T06:26:36;99602.41;;;4.96;100.00
25722;BME280;13578;53.450;15.496;2022-11-15T06:29:36;99603.19;;;4.98;100.00
25722;BME280;13578;53.450;15.496;2022-11-15T06:32:37;99603.72;;;5.03;100.00
25722;BME280;13578;53.450;15.496;2022-11-15T06:35:37;99607.00;;;4.96;100.00
25722;BME280;13578;53.450;15.496;2022-11-15T06:38:38;99610.94;;;4.91;100.00
25722;BME280;13578;53.450;15.496;2022-11-15T06:41:39;99608.75;;;4.97;100.00
25722;BME280;13578;53.450;15.496;2022-11-15T06:44:39;99616.78;;;4.98;100.00
25722;BME280;13578;53.450;15.496;2022-11-15T06:47:46;99604.09;;;4.99;100.00
25722;BME280;13578;53.450;15.496;2022-11-15T06:50:51;99600.28;;;5.01;100.00
25722;BME280;13578;53.450;15.496;2022-11-15T06:53:52;99612.31;;;4.97;100.00
25722;BME280;13578;53.450;15.496;2022-11-15T06:56:52;99613.41;;;4.95;100.00
25722;BME280;13578;53.450;15.496;2022-11-15T06:59:53;99617.75;;;4.97;100.00
25722;BME280;13578;53.450;15.496;2022-11-15T07:02:54;99617.22;;;4.92;100.00
25722;BME280;13578;53.450;15.496;2022-11-15T07:05:56;99613.84;;;4.88;100.00
25722;BME280;13578;53.450;15.496;2022-11-15T07:08:56;99613.19;;;4.85;100.00
25722;BME280;13578;53.450;15.496;2022-11-15T07:11:57;99615.13;;;4.83;100.00
25722;BME280;13578;53.450;15.496;2022-11-15T07:14:58;99620.25;;;4.87;100.00
25722;BME280;13578;53.450;15.496;2022-11-15T07:18:01;99611.31;;;4.85;100.00
25722;BME280;13578;53.450;15.496;2022-11-15T07:21:07;99614.50;;;4.92;100.00
25722;BME280;13578;53.450;15.496;2022-11-15T07:24:07;99618.53;;;4.99;100.00
25722;BME280;13578;53.450;15.496;2022-11-15T07:27:08;99619.41;;;5.00;100.00
25722;BME280;13578;53.450;15.496;2022-11-15T07:30:09;99616.00;;;4.96;100.00
25722;BME280;13578;53.450;15.496;2022-11-15T07:33:10;99619.41;;;5.00;100.00
25722;BME280;13578;53.450;15.496;2022-11-15T07:36:10;99624.63;;;5.03;100.00
25722;BME280;13578;53.450;15.496;2022-11-15T07:39:11;99635.41;;;5.04;100.00
25722;BME280;13578;53.450;15.496;2022-11-15T07:42:12;99627.56;;;5.00;100.00
25722;BME280;13578;53.450;15.496;2022-11-15T07:45:32;99635.72;;;5.00;100.00
25722;BME280;13578;53.450;15.496;2022-11-15T07:48:36;99633.00;;;5.00;100.00
25722;BME280;13578;53.450;15.496;2022-11-15T07:51:39;99623.53;;;5.05;100.00
25722;BME280;13578;53.450;15.496;2022-11-15T07:54:40;99624.44;;;5.06;100.00
25722;BME280;13578;53.450;15.496;2022-11-15T07:57:40;99622.38;;;5.09;100.00
25722;BME280;13578;53.450;15.496;2022-11-15T08:00:41;99611.50;;;5.09;100.00
25722;BME280;13578;53.450;15.496;2022-11-15T08:03:41;99619.28;;;5.14;100.00
25722;BME280;13578;53.450;15.496;2022-11-15T08:06:42;99620.06;;;5.16;100.00
25722;BME280;13578;53.450;15.496;2022-11-15T08:09:43;99618.13;;;5.18;100.00
25722;BME280;13578;53.450;15.496;2022-11-15T08:12:43;99614.44;;;5.19;100.00
25722;BME280;13578;53.450;15.496;2022-11-15T08:15:44;99616.16;;;5.20;100.00
25722;BME280;13578;53.450;15.496;2022-11-15T08:18:45;99605.69;;;5.27;100.00
25722;BME280;13578;53.450;15.496;2022-11-15T08:21:46;99611.59;;;5.34;100.00
25722;BME280;13578;53.450;15.496;2022-11-15T08:24:46;99601.81;;;5.31;100.00
25722;BME280;13578;53.450;15.496;2022-11-15T08:27:47;99609.63;;;5.36;100.00
25722;BME280;13578;53.450;15.496;2022-11-15T08:30:47;99602.78;;;5.43;100.00
25722;BME280;13578;53.450;15.496;2022-11-15T08:33:48;99617.13;;;5.45;100.00
25722;BME280;13578;53.450;15.496;2022-11-15T08:36:48;99608.50;;;5.51;100.00
25722;BME280;13578;53.450;15.496;2022-11-15T08:39:49;99618.41;;;5.52;100.00
25722;BME280;13578;53.450;15.496;2022-11-15T08:42:50;99618.34;;;5.54;100.00
25722;BME280;13578;53.450;15.496;2022-11-15T08:45:50;99613.63;;;5.56;100.00
25722;BME280;13578;53.450;15.496;2022-11-15T08:48:51;99617.66;;;5.63;100.00
25722;BME280;13578;53.450;15.496;2022-11-15T08:51:51;99610.13;;;5.67;100.00
25722;BME280;13578;53.450;15.496;2022-11-15T08:54:52;99618.84;;;5.72;100.00
25722;BME280;13578;53.450;15.496;2022-11-15T08:57:52;99621.34;;;5.75;100.00
25722;BME280;13578;53.450;15.496;2022-11-15T09:00:53;99611.22;;;5.77;100.00
25722;BME280;13578;53.450;15.496;2022-11-15T09:03:54;99610.91;;;5.69;100.00
25722;BME280;13578;53.450;15.496;2022-11-15T09:06:55;99606.84;;;5.75;100.00
25722;BME280;13578;53.450;15.496;2022-11-15T09:09:55;99613.03;;;5.77;100.00
25722;BME280;13578;53.450;15.496;2022-11-15T09:12:57;99616.66;;;5.77;100.00
25722;BME280;13578;53.450;15.496;2022-11-15T09:15:59;99618.81;;;5.85;100.00
25722;BME280;13578;53.450;15.496;2022-11-15T09:18:59;99617.50;;;5.91;100.00
25722;BME280;13578;53.450;15.496;2022-11-15T09:22:00;99613.66;;;5.93;100.00
25722;BME280;13578;53.450;15.496;2022-11-15T09:25:01;99623.28;;;5.99;100.00
25722;BME280;13578;53.450;15.496;2022-11-15T09:28:06;99619.25;;;6.04;100.00
25722;BME280;13578;53.450;15.496;2022-11-15T09:31:07;99619.25;;;6.04;100.00
25722;BME280;13578;53.450;15.496;2022-11-15T09:34:08;99604.91;;;6.14;100.00
25722;BME280;13578;53.450;15.496;2022-11-15T09:37:08;99611.00;;;6.17;100.00
25722;BME280;13578;53.450;15.496;2022-11-15T09:40:14;99603.06;;;6.14;100.00
25722;BME280;13578;53.450;15.496;2022-11-15T09:43:26;99613.28;;;6.24;100.00
25722;BME280;13578;53.450;15.496;2022-11-15T09:50:16;99611.13;;;6.40;100.00
25722;BME280;13578;53.450;15.496;2022-11-15T09:56:45;99612.00;;;6.41;100.00
25722;BME280;13578;53.450;15.496;2022-11-15T10:00:24;99614.38;;;6.45;100.00
25722;BME280;13578;53.450;15.496;2022-11-15T10:03:30;99604.97;;;6.49;100.00
25722;BME280;13578;53.450;15.496;2022-11-15T10:06:32;99597.78;;;6.48;100.00
25722;BME280;13578;53.450;15.496;2022-11-15T10:12:57;99599.88;;;6.45;100.00
25722;BME280;13578;53.450;15.496;2022-11-15T10:19:30;99601.00;;;6.54;100.00
25722;BME280;13578;53.450;15.496;2022-11-15T10:22:41;99589.75;;;6.58;100.00
25722;BME280;13578;53.450;15.496;2022-11-15T10:25:44;99581.72;;;6.57;100.00
25722;BME280;13578;53.450;15.496;2022-11-15T10:28:45;99592.13;;;6.63;100.00
25722;BME280;13578;53.450;15.496;2022-11-15T10:31:45;99591.63;;;6.58;100.00
25722;BME280;13578;53.450;15.496;2022-11-15T10:34:48;99583.84;;;6.64;100.00
25722;BME280;13578;53.450;15.496;2022-11-15T10:37:49;99571.72;;;6.68;100.00
25722;BME280;13578;53.450;15.496;2022-11-15T10:41:06;99565.84;;;6.62;100.00
25722;BME280;13578;53.450;15.496;2022-11-15T10:47:23;99569.09;;;6.67;100.00
25722;BME280;13578;53.450;15.496;2022-11-15T10:50:31;99563.38;;;6.59;100.00
25722;BME280;13578;53.450;15.496;2022-11-15T10:53:43;99569.88;;;6.45;100.00
25722;BME280;13578;53.450;15.496;2022-11-15T10:56:49;99569.13;;;6.18;100.00
25722;BME280;13578;53.450;15.496;2022-11-15T10:59:59;99563.84;;;6.28;100.00
25722;BME280;13578;53.450;15.496;2022-11-15T11:03:03;99558.34;;;6.41;100.00
25722;BME280;13578;53.450;15.496;2022-11-15T11:06:17;99566.47;;;6.54;100.00
25722;BME280;13578;53.450;15.496;2022-11-15T11:09:36;99569.34;;;6.64;100.00
25722;BME280;13578;53.450;15.496;2022-11-15T11:12:37;99566.13;;;6.70;100.00
25722;BME280;13578;53.450;15.496;2022-11-15T11:15:37;99564.78;;;6.76;100.00
25722;BME280;13578;53.450;15.496;2022-11-15T11:18:48;99566.19;;;6.81;100.00
25722;BME280;13578;53.450;15.496;2022-11-15T11:32:57;99559.06;;;6.67;100.00
25722;BME280;13578;53.450;15.496;2022-11-15T11:42:32;99562.28;;;6.73;100.00
25722;BME280;13578;53.450;15.496;2022-11-15T11:48:48;99561.56;;;6.71;100.00
25722;BME280;13578;53.450;15.496;2022-11-15T11:55:15;99551.03;;;6.77;100.00
25722;BME280;13578;53.450;15.496;2022-11-15T11:58:40;99551.03;;;6.77;100.00
25722;BME280;13578;53.450;15.496;2022-11-15T12:01:43;99553.03;;;6.75;100.00
25722;BME280;13578;53.450;15.496;2022-11-15T12:04:50;99545.97;;;6.84;100.00
25722;BME280;13578;53.450;15.496;2022-11-15T12:07:54;99542.34;;;6.83;100.00
25722;BME280;13578;53.450;15.496;2022-11-15T12:11:49;99534.31;;;6.82;100.00
25722;BME280;13578;53.450;15.496;2022-11-15T12:14:31;99548.06;;;6.80;100.00
25722;BME280;13578;53.450;15.496;2022-11-15T12:17:33;99541.09;;;6.76;100.00
25722;BME280;13578;53.450;15.496;2022-11-15T12:20:36;99539.00;;;6.80;100.00
25722;BME280;13578;53.450;15.496;2022-11-15T12:23:45;99529.94;;;6.68;100.00
25722;BME280;13578;53.450;15.496;2022-11-15T12:27:03;99525.75;;;6.75;100.00
25722;BME280;13578;53.450;15.496;2022-11-15T12:30:15;99521.88;;;6.66;100.00
25722;BME280;13578;53.450;15.496;2022-11-15T12:52:30;99499.63;;;6.37;100.00
25722;BME280;13578;53.450;15.496;2022-11-15T12:55:32;99497.38;;;6.42;100.00
25722;BME280;13578;53.450;15.496;2022-11-15T12:58:49;99495.28;;;6.34;100.00
25722;BME280;13578;53.450;15.496;2022-11-15T13:01:57;99492.91;;;6.41;100.00
25722;BME280;13578;53.450;15.496;2022-11-15T13:08:40;99472.84;;;6.31;100.00
25722;BME280;13578;53.450;15.496;2022-11-15T13:11:50;99468.31;;;6.18;100.00
25722;BME280;13578;53.450;15.496;2022-11-15T13:14:52;99463.84;;;6.17;100.00
25722;BME280;13578;53.450;15.496;2022-11-15T13:17:55;99470.03;;;6.08;100.00
25722;BME280;13578;53.450;15.496;2022-11-15T13:20:56;99465.28;;;5.99;100.00
25722;BME280;13578;53.450;15.496;2022-11-15T13:23:57;99456.44;;;5.95;100.00
25722;BME280;13578;53.450;15.496;2022-11-15T13:26:58;99452.09;;;5.93;100.00
25722;BME280;13578;53.450;15.496;2022-11-15T13:30:15;99449.44;;;5.80;100.00
25722;BME280;13578;53.450;15.496;2022-11-15T13:33:20;99454.03;;;5.79;100.00
25722;BME280;13578;53.450;15.496;2022-11-15T13:36:32;99445.59;;;5.82;100.00
25722;BME280;13578;53.450;15.496;2022-11-15T13:39:34;99446.50;;;5.83;100.00
25722;BME280;13578;53.450;15.496;2022-11-15T13:42:37;99454.41;;;5.86;100.00
25722;BME280;13578;53.450;15.496;2022-11-15T13:45:38;99451.69;;;5.86;100.00
25722;BME280;13578;53.450;15.496;2022-11-15T13:48:42;99443.13;;;5.79;100.00
25722;BME280;13578;53.450;15.496;2022-11-15T13:51:50;99450.53;;;5.77;100.00
25722;BME280;13578;53.450;15.496;2022-11-15T13:55:17;99462.88;;;5.70;100.00
25722;BME280;13578;53.450;15.496;2022-11-15T13:58:19;99451.91;;;5.59;100.00
25722;BME280;13578;53.450;15.496;2022-11-15T14:01:21;99457.91;;;5.64;100.00
25722;BME280;13578;53.450;15.496;2022-11-15T14:04:23;99451.69;;;5.62;100.00
25722;BME280;13578;53.450;15.496;2022-11-15T14:07:26;99448.63;;;5.66;100.00
25722;BME280;13578;53.450;15.496;2022-11-15T14:10:32;99436.63;;;5.69;100.00
25722;BME280;13578;53.450;15.496;2022-11-15T14:13:34;99447.31;;;5.72;100.00
25722;BME280;13578;53.450;15.496;2022-11-15T14:16:37;99448.44;;;5.81;100.00
25722;BME280;13578;53.450;15.496;2022-11-15T14:19:39;99441.78;;;5.85;100.00
25722;BME280;13578;53.450;15.496;2022-11-15T14:22:54;99451.19;;;5.81;100.00
25722;BME280;13578;53.450;15.496;2022-11-15T14:25:57;99432.34;;;5.78;100.00
25722;BME280;13578;53.450;15.496;2022-11-15T14:29:27;99444.84;;;5.80;100.00
25722;BME280;13578;53.450;15.496;2022-11-15T14:32:43;99436.13;;;5.64;100.00
25722;BME280;13578;53.450;15.496;2022-11-15T14:35:44;99441.56;;;5.64;100.00
25722;BME280;13578;53.450;15.496;2022-11-15T14:38:45;99432.50;;;5.63;100.00
25722;BME280;13578;53.450;15.496;2022-11-15T14:41:45;99434.53;;;5.72;100.00
25722;BME280;13578;53.450;15.496;2022-11-15T14:44:46;99434.25;;;5.64;100.00
25722;BME280;13578;53.450;15.496;2022-11-15T14:47:47;99428.69;;;5.66;100.00
25722;BME280;13578;53.450;15.496;2022-11-15T14:50:48;99429.63;;;5.53;100.00
25722;BME280;13578;53.450;15.496;2022-11-15T14:53:49;99427.41;;;5.59;100.00
25722;BME280;13578;53.450;15.496;2022-11-15T14:56:50;99428.22;;;5.48;100.00
25722;BME280;13578;53.450;15.496;2022-11-15T14:59:50;99431.69;;;5.50;100.00
25722;BME280;13578;53.450;15.496;2022-11-15T15:02:53;99423.97;;;5.56;100.00
25722;BME280;13578;53.450;15.496;2022-11-15T15:05:54;99426.69;;;5.56;100.00
25722;BME280;13578;53.450;15.496;2022-11-15T15:08:56;99421.63;;;5.63;100.00
25722;BME280;13578;53.450;15.496;2022-11-15T15:11:57;99420.25;;;5.57;100.00
25722;BME280;13578;53.450;15.496;2022-11-15T15:14:57;99436.47;;;5.59;100.00
25722;BME280;13578;53.450;15.496;2022-11-15T15:17:59;99424.69;;;5.59;100.00
25722;BME280;13578;53.450;15.496;2022-11-15T15:21:00;99425.31;;;5.62;100.00
25722;BME280;13578;53.450;15.496;2022-11-15T15:24:14;99433.31;;;5.52;100.00
25722;BME280;13578;53.450;15.496;2022-11-15T15:27:15;99424.13;;;5.42;100.00
25722;BME280;13578;53.450;15.496;2022-11-15T15:30:16;99434.13;;;5.41;100.00
25722;BME280;13578;53.450;15.496;2022-11-15T15:33:16;99431.09;;;5.33;100.00
25722;BME280;13578;53.450;15.496;2022-11-15T15:36:18;99424.47;;;5.37;100.00
25722;BME280;13578;53.450;15.496;2022-11-15T15:39:19;99433.94;;;5.32;100.00
25722;BME280;13578;53.450;15.496;2022-11-15T15:42:20;99433.44;;;5.27;100.00
25722;BME280;13578;53.450;15.496;2022-11-15T15:45:21;99417.25;;;5.12;100.00
25722;BME280;13578;53.450;15.496;2022-11-15T15:48:22;99415.81;;;5.19;100.00
25722;BME280;13578;53.450;15.496;2022-11-15T15:51:23;99418.53;;;5.19;100.00
25722;BME280;13578;53.450;15.496;2022-11-15T15:54:23;99410.06;;;5.11;100.00
25722;BME280;13578;53.450;15.496;2022-11-15T15:57:24;99405.91;;;5.18;100.00
25722;BME280;13578;53.450;15.496;2022-11-15T16:00:25;99411.47;;;5.17;100.00
25722;BME280;13578;53.450;15.496;2022-11-15T16:03:26;99407.41;;;5.22;100.00
25722;BME280;13578;53.450;15.496;2022-11-15T16:06:34;99406.31;;;5.25;100.00
25722;BME280;13578;53.450;15.496;2022-11-15T16:09:35;99401.53;;;5.29;100.00
25722;BME280;13578;53.450;15.496;2022-11-15T16:12:56;99406.72;;;5.32;100.00
25722;BME280;13578;53.450;15.496;2022-11-15T16:15:56;99413.50;;;5.26;100.00
25722;BME280;13578;53.450;15.496;2022-11-15T16:18:57;99400.09;;;5.36;100.00
25722;BME280;13578;53.450;15.496;2022-11-15T16:21:58;99408.06;;;5.26;100.00
25722;BME280;13578;53.450;15.496;2022-11-15T16:24:58;99407.41;;;5.22;100.00
25722;BME280;13578;53.450;15.496;2022-11-15T16:27:59;99408.75;;;5.17;100.00
25722;BME280;13578;53.450;15.496;2022-11-15T16:34:03;99398.31;;;5.11;100.00
25722;BME280;13578;53.450;15.496;2022-11-15T16:37:04;99395.09;;;4.92;100.00
25722;BME280;13578;53.450;15.496;2022-11-15T16:40:15;99388.13;;;5.01;100.00
25722;BME280;13578;53.450;15.496;2022-11-15T16:43:18;99389.97;;;5.01;100.00
25722;BME280;13578;53.450;15.496;2022-11-15T16:46:20;99384.97;;;4.95;100.00
25722;BME280;13578;53.450;15.496;2022-11-15T16:49:21;99383.22;;;4.93;100.00
25722;BME280;13578;53.450;15.496;2022-11-15T16:52:22;99383.03;;;4.97;100.00
25722;BME280;13578;53.450;15.496;2022-11-15T16:55:25;99377.00;;;5.04;100.00
25722;BME280;13578;53.450;15.496;2022-11-15T16:58:27;99377.63;;;5.08;100.00
25722;BME280;13578;53.450;15.496;2022-11-15T17:01:33;99374.91;;;5.08;100.00
25722;BME280;13578;53.450;15.496;2022-11-15T17:04:45;99376.78;;;5.07;100.00
25722;BME280;13578;53.450;15.496;2022-11-15T17:07:48;99363.66;;;5.01;100.00
25722;BME280;13578;53.450;15.496;2022-11-15T17:10:49;99363.41;;;5.04;100.00
25722;BME280;13578;53.450;15.496;2022-11-15T17:13:50;99369.47;;;5.08;100.00
25722;BME280;13578;53.450;15.496;2022-11-15T17:16:51;99348.47;;;5.10;100.00
25722;BME280;13578;53.450;15.496;2022-11-15T17:19:52;99357.63;;;5.09;100.00
25722;BME280;13578;53.450;15.496;2022-11-15T17:22:53;99362.22;;;5.08;100.00
25722;BME280;13578;53.450;15.496;2022-11-15T17:26:01;99359.16;;;5.13;100.00